TAF and METAR

Decoding for American and Canadian METARs and TAFs is not fully implemented.

Could not understand the following METAR

PAEI 270556Z 09003KT 10SM CLR M26/M30 A2982 RMK AO2A SLPNO T12631301 11137 21263 52012 $

TAF for Eielson Air Force Base

TAF PAEI 262200Z 2622/2804 35006KT 9999 FEW150 QNH2975INS BECMG 2702/2703 VRB03KT 9999 SKC QNH2973INS TXM15/2703Z TNM30/2712Z
Report created 26. feb 23:00

between 26. feb 23:00 - 28. feb 05:00

wind 6 knots from N (350°) visibility > 10km some clouds (~25% cover) at 15000 feet
Eielson Air Force Base in United States of America at 167m

Latest 5 airports